Time;durP1;ratioP1;P1;durP2;ratioP2;P2;SDS_P1;SDS_P2;PMS_P1;PMS_P2;Temp;Humidity;BMP_temperature;BMP_pressure;BME280_temperature;BME280_humidity;BME280_pressure;Samples;Min_cycle;Max_cycle;Signal;HPM_P1;HPM_P2
2022/07/31 00:00:08;;;;;;;13.55;9.23;;;17.40;99.90;;;;;;5036595;28;20387;-71
2022/07/31 00:02:35;;;;;;;12.18;8.80;;;17.40;99.90;;;;;;5055160;28;20087;-72
2022/07/31 00:05:01;;;;;;;14.77;9.27;;;17.40;99.90;;;;;;5060713;28;20125;-71
2022/07/31 00:07:26;;;;;;;14.55;9.95;;;17.30;99.90;;;;;;5062352;28;20755;-71
2022/07/31 00:09:54;;;;;;;13.80;9.07;;;17.30;99.90;;;;;;5060279;28;20182;-71
2022/07/31 00:12:20;;;;;;;15.10;9.25;;;17.30;99.90;;;;;;5061718;28;20048;-71
2022/07/31 00:14:46;;;;;;;13.43;8.85;;;17.30;99.90;;;;;;5059526;28;20063;-71
2022/07/31 00:17:11;;;;;;;13.68;10.38;;;17.30;99.90;;;;;;5077888;28;20041;-72
2022/07/31 00:19:37;;;;;;;15.60;9.50;;;17.30;99.90;;;;;;5055373;28;20094;-71
2022/07/31 00:22:03;;;;;;;14.68;9.93;;;17.20;99.90;;;;;;5058938;28;20497;-72
2022/07/31 00:24:29;;;;;;;14.52;9.65;;;17.20;99.90;;;;;;5041333;28;20048;-71
2022/07/31 00:26:55;;;;;;;13.55;9.63;;;17.30;99.90;;;;;;5060081;28;20044;-71
2022/07/31 00:29:21;;;;;;;18.38;11.68;;;17.30;99.90;;;;;;5061198;28;20045;-71
2022/07/31 00:31:46;;;;;;;14.80;10.57;;;17.30;99.90;;;;;;5059604;28;20270;-71
2022/07/31 00:34:12;;;;;;;15.85;10.90;;;17.30;99.90;;;;;;5059078;28;20040;-71
2022/07/31 00:36:37;;;;;;;14.55;10.85;;;17.30;99.90;;;;;;5058220;28;20353;-71
2022/07/31 00:39:03;;;;;;;14.77;10.77;;;17.30;99.90;;;;;;5058246;28;20045;-71
2022/07/31 00:41:44;;;;;;;18.13;11.93;;;17.30;99.90;;;;;;5058210;28;20048;-71
2022/07/31 00:44:11;;;;;;;25.00;13.25;;;17.30;99.90;;;;;;5058584;28;20122;-71
2022/07/31 00:46:37;;;;;;;18.83;13.40;;;17.30;99.90;;;;;;5060498;28;20143;-71
2022/07/31 00:49:06;;;;;;;16.55;13.38;;;17.30;99.90;;;;;;5059206;28;20135;-71
2022/07/31 00:51:31;;;;;;;21.15;12.18;;;17.30;99.90;;;;;;5055630;28;20091;-71
2022/07/31 00:53:58;;;;;;;21.15;13.15;;;17.30;99.90;;;;;;5056648;28;20033;-71
2022/07/31 00:56:24;;;;;;;21.70;13.20;;;17.30;99.90;;;;;;5056648;28;20495;-71
2022/07/31 00:58:50;;;;;;;22.85;13.30;;;17.30;99.90;;;;;;5055536;28;20110;-71
2022/07/31 01:01:15;;;;;;;17.05;12.70;;;17.20;99.90;;;;;;5063723;28;20044;-71
2022/07/31 01:03:41;;;;;;;19.25;13.35;;;17.30;99.90;;;;;;5035821;28;20037;-71
2022/07/31 01:06:08;;;;;;;18.20;12.25;;;17.30;99.90;;;;;;5055498;28;20047;-71
2022/07/31 01:08:34;;;;;;;19.45;13.38;;;17.20;99.90;;;;;;5056361;28;20037;-71
2022/07/31 01:11:18;;;;;;;17.75;12.30;;;17.30;99.90;;;;;;5056929;28;20079;-72
2022/07/31 01:13:50;;;;;;;16.27;12.25;;;17.20;99.90;;;;;;5055581;28;20040;-71
2022/07/31 01:16:17;;;;;;;19.02;12.52;;;17.20;99.90;;;;;;5058014;28;20040;-71
2022/07/31 01:18:45;;;;;;;20.23;12.88;;;17.20;99.90;;;;;;5058498;28;20747;-72
2022/07/31 01:21:16;;;;;;;18.10;12.80;;;17.20;99.90;;;;;;5067386;28;20475;-71
2022/07/31 01:23:48;;;;;;;21.33;13.45;;;17.10;99.90;;;;;;5080217;28;20055;-72
2022/07/31 01:26:32;;;;;;;18.30;12.73;;;17.20;99.90;;;;;;5057794;28;20072;-71
2022/07/31 01:29:01;;;;;;;17.52;11.93;;;17.10;99.90;;;;;;5056518;28;20067;-71
2022/07/31 01:31:34;;;;;;;15.27;12.50;;;17.10;99.90;;;;;;5043545;28;20048;-71
2022/07/31 01:34:29;;;;;;;20.40;12.93;;;17.10;99.90;;;;;;5060709;28;20045;-71
2022/07/31 01:37:33;;;;;;;16.35;11.80;;;17.10;99.90;;;;;;5066189;28;20051;-71
2022/07/31 01:40:12;;;;;;;18.02;12.15;;;17.10;99.90;;;;;;5053939;28;20074;-71
2022/07/31 01:42:41;;;;;;;18.70;13.13;;;17.20;99.90;;;;;;5057168;28;20754;-71
2022/07/31 01:45:09;;;;;;;15.98;12.07;;;17.20;99.90;;;;;;5072559;28;20041;-71
2022/07/31 01:47:37;;;;;;;17.00;12.00;;;17.10;99.90;;;;;;5058444;28;20048;-71
2022/07/31 01:50:04;;;;;;;17.02;12.57;;;17.10;99.90;;;;;;5059888;28;20086;-71
2022/07/31 01:52:32;;;;;;;16.70;12.48;;;17.10;99.90;;;;;;5054221;28;20056;-72
2022/07/31 01:54:59;;;;;;;15.00;11.63;;;17.10;99.90;;;;;;5058424;28;20040;-71
2022/07/31 01:57:28;;;;;;;16.88;11.35;;;17.10;99.90;;;;;;5054149;28;20037;-71
2022/07/31 01:59:59;;;;;;;19.13;12.50;;;17.10;99.90;;;;;;5071963;28;20395;-71
2022/07/31 02:02:26;;;;;;;16.88;11.77;;;17.10;99.90;;;;;;5057681;28;20492;-71
2022/07/31 02:04:54;;;;;;;17.45;12.52;;;17.10;99.90;;;;;;5061053;28;20424;-71
2022/07/31 02:07:21;;;;;;;19.70;11.85;;;17.10;99.90;;;;;;5072890;28;20438;-71
2022/07/31 02:09:47;;;;;;;18.50;11.68;;;17.10;99.90;;;;;;5076021;28;20032;-71
2022/07/31 02:12:13;;;;;;;18.98;11.40;;;17.00;99.90;;;;;;5058542;28;20048;-71
2022/07/31 02:14:42;;;;;;;18.08;11.02;;;17.10;99.90;;;;;;5056586;28;20420;-71
2022/07/31 02:17:08;;;;;;;19.38;11.05;;;17.00;99.90;;;;;;5052171;28;20408;-71
2022/07/31 02:19:37;;;;;;;15.60;10.93;;;17.10;99.90;;;;;;5054271;28;20041;-71
2022/07/31 02:22:03;;;;;;;13.98;10.50;;;17.10;99.90;;;;;;5056310;28;20041;-71
2022/07/31 02:24:29;;;;;;;18.73;10.43;;;17.10;99.90;;;;;;5055383;28;20155;-72
2022/07/31 02:26:56;;;;;;;21.98;10.27;;;17.00;99.90;;;;;;5051099;28;20120;-71
2022/07/31 02:29:23;;;;;;;18.02;10.85;;;17.10;99.90;;;;;;5057335;28;20041;-71
2022/07/31 02:31:54;;;;;;;13.55;9.73;;;17.10;99.90;;;;;;5050214;28;20136;-71
2022/07/31 02:34:21;;;;;;;13.73;10.32;;;17.10;99.90;;;;;;5054752;28;20032;-71
2022/07/31 02:36:47;;;;;;;13.63;9.77;;;17.10;99.90;;;;;;5055125;28;20041;-71
2022/07/31 02:39:15;;;;;;;14.30;11.00;;;17.10;99.90;;;;;;5049443;28;20484;-71
2022/07/31 02:41:41;;;;;;;15.18;10.38;;;17.00;99.90;;;;;;5067603;28;20136;-71
2022/07/31 02:44:10;;;;;;;17.15;10.85;;;17.10;99.90;;;;;;5060091;28;20080;-71
2022/07/31 02:46:36;;;;;;;17.38;10.77;;;17.10;99.90;;;;;;5057434;28;20048;-72
2022/07/31 02:49:02;;;;;;;17.20;12.18;;;17.00;99.90;;;;;;5055482;28;20033;-71
2022/07/31 02:51:28;;;;;;;16.52;12.38;;;17.10;99.90;;;;;;5038632;28;20481;-71
2022/07/31 02:53:54;;;;;;;18.58;12.32;;;17.00;99.90;;;;;;5057976;28;20654;-71
2022/07/31 02:56:22;;;;;;;22.75;12.43;;;17.00;99.90;;;;;;5057454;28;20078;-71
2022/07/31 02:58:47;;;;;;;16.90;11.70;;;16.90;99.90;;;;;;5057063;28;20036;-71
2022/07/31 03:01:13;;;;;;;17.52;11.88;;;17.00;99.90;;;;;;5060585;28;20125;-71
2022/07/31 03:03:38;;;;;;;14.35;11.10;;;17.00;99.90;;;;;;5057851;28;20036;-71
2022/07/31 03:06:04;;;;;;;20.65;12.65;;;17.00;99.90;;;;;;5055068;28;20032;-71
2022/07/31 03:08:30;;;;;;;15.13;11.52;;;17.00;99.90;;;;;;5056970;28;20064;-71
2022/07/31 03:10:56;;;;;;;18.40;11.77;;;16.90;99.90;;;;;;5053586;28;20028;-71
2022/07/31 03:13:24;;;;;;;16.45;11.65;;;17.00;99.90;;;;;;5054916;28;20066;-71
2022/07/31 03:15:50;;;;;;;14.50;11.32;;;16.90;99.90;;;;;;5071015;28;20036;-71
2022/07/31 03:18:17;;;;;;;21.20;11.10;;;17.00;99.90;;;;;;5058202;28;20041;-71
2022/07/31 03:20:45;;;;;;;18.60;11.05;;;16.90;99.90;;;;;;5057098;28;20028;-71
2022/07/31 03:23:12;;;;;;;19.42;11.77;;;17.00;99.90;;;;;;5052455;28;20514;-71
2022/07/31 03:25:39;;;;;;;14.77;10.95;;;16.90;99.90;;;;;;5057965;28;20047;-72
2022/07/31 03:28:05;;;;;;;14.23;11.50;;;16.90;99.90;;;;;;5055839;28;20044;-71
2022/07/31 03:30:31;;;;;;;16.92;11.73;;;16.90;99.90;;;;;;5059417;28;20078;-71
2022/07/31 03:32:56;;;;;;;19.35;11.45;;;16.90;99.90;;;;;;5055168;28;20128;-72
2022/07/31 03:35:23;;;;;;;17.33;11.00;;;16.90;99.90;;;;;;5049349;28;20037;-71
2022/07/31 03:37:49;;;;;;;17.80;11.90;;;16.90;99.90;;;;;;5059481;28;20047;-71
2022/07/31 03:40:14;;;;;;;19.23;12.38;;;16.90;99.90;;;;;;5047305;28;20673;-72
2022/07/31 03:42:41;;;;;;;16.67;11.63;;;16.90;99.90;;;;;;5052279;28;20032;-72
2022/07/31 03:45:10;;;;;;;17.50;11.07;;;16.80;99.90;;;;;;5051991;28;20157;-72
2022/07/31 03:47:36;;;;;;;17.13;12.80;;;16.90;99.90;;;;;;5057856;28;20036;-72
2022/07/31 03:50:02;;;;;;;16.33;11.85;;;16.90;99.90;;;;;;5051567;28;20351;-71
2022/07/31 03:52:28;;;;;;;17.73;12.68;;;16.80;99.90;;;;;;5059595;28;20124;-71
2022/07/31 03:54:54;;;;;;;18.83;13.48;;;16.90;99.90;;;;;;5054687;28;20036;-71
2022/07/31 03:57:20;;;;;;;18.30;12.52;;;16.80;99.90;;;;;;5041158;28;20043;-72
2022/07/31 03:59:48;;;;;;;19.42;13.40;;;16.80;99.90;;;;;;5052719;28;20147;-71
2022/07/31 04:02:14;;;;;;;17.35;13.27;;;16.80;99.90;;;;;;5042497;28;20491;-71
2022/07/31 04:04:41;;;;;;;20.33;13.38;;;16.90;99.90;;;;;;5054310;28;20106;-71
2022/07/31 04:07:08;;;;;;;18.70;12.65;;;16.80;99.90;;;;;;5059495;28;20253;-71
2022/07/31 04:09:33;;;;;;;20.80;12.85;;;16.90;99.90;;;;;;5054929;28;20127;-71
2022/07/31 04:11:59;;;;;;;17.70;12.57;;;16.90;99.90;;;;;;5058545;28;20040;-71
2022/07/31 04:14:25;;;;;;;19.17;12.10;;;16.90;99.90;;;;;;5039187;28;20058;-71
2022/07/31 04:16:50;;;;;;;18.45;12.50;;;16.80;99.90;;;;;;5056675;28;20111;-71
2022/07/31 04:19:16;;;;;;;16.38;12.63;;;16.90;99.90;;;;;;5054103;28;20480;-71
2022/07/31 04:21:41;;;;;;;16.95;11.70;;;16.90;99.90;;;;;;5072151;28;20037;-72
2022/07/31 04:24:07;;;;;;;16.98;11.80;;;16.90;99.90;;;;;;5054745;28;20029;-71
2022/07/31 04:26:33;;;;;;;21.05;13.05;;;16.90;99.90;;;;;;5054293;28;20503;-72
2022/07/31 04:28:59;;;;;;;20.73;12.27;;;16.90;99.90;;;;;;5055242;28;20049;-71
2022/07/31 04:31:24;;;;;;;20.40;12.98;;;16.90;99.90;;;;;;5072103;28;20049;-71
2022/07/31 04:33:50;;;;;;;18.48;13.07;;;16.90;99.90;;;;;;5046917;28;20045;-72
2022/07/31 04:36:18;;;;;;;20.33;12.65;;;17.00;99.90;;;;;;5051066;28;20037;-71
2022/07/31 04:38:44;;;;;;;17.75;13.25;;;17.00;99.90;;;;;;5055637;28;20037;-72
2022/07/31 04:41:09;;;;;;;17.92;13.35;;;17.00;99.90;;;;;;5055707;28;20037;-72
2022/07/31 04:43:35;;;;;;;21.92;13.35;;;17.00;99.90;;;;;;5053433;28;20159;-72
2022/07/31 04:46:01;;;;;;;17.30;12.80;;;17.00;99.90;;;;;;5055515;28;20049;-71
2022/07/31 04:48:26;;;;;;;17.75;12.82;;;17.00;99.90;;;;;;5059634;28;20529;-71
2022/07/31 04:50:52;;;;;;;17.67;13.05;;;17.00;99.90;;;;;;5061081;28;20041;-71
2022/07/31 04:53:18;;;;;;;17.92;13.23;;;17.10;99.90;;;;;;5057895;28;20032;-71
2022/07/31 04:56:31;;;;;;;19.95;13.20;;;17.20;99.90;;;;;;5057610;28;20350;-72
2022/07/31 04:58:29;;;;;;;25.23;15.10;;;17.20;99.90;;;;;;5056651;28;20043;-72
2022/07/31 05:00:54;;;;;;;18.58;13.98;;;17.20;99.90;;;;;;5058197;28;20045;-72
2022/07/31 05:03:20;;;;;;;20.98;13.75;;;17.20;99.90;;;;;;5060537;28;20040;-71
2022/07/31 05:05:45;;;;;;;19.38;13.52;;;17.30;99.90;;;;;;5057670;28;20042;-71
2022/07/31 05:08:11;;;;;;;23.25;14.32;;;17.20;99.90;;;;;;5057742;28;20425;-72
2022/07/31 05:13:20;;;;;;;20.27;14.77;;;17.40;99.90;;;;;;5054649;28;20098;-71
2022/07/31 05:15:46;;;;;;;20.35;15.85;;;17.30;99.90;;;;;;5059752;28;20033;-70
2022/07/31 05:18:11;;;;;;;19.08;14.30;;;17.40;99.90;;;;;;5064437;28;20407;-71
2022/07/31 05:20:37;;;;;;;23.67;14.00;;;17.40;99.90;;;;;;5052961;28;20155;-71
2022/07/31 05:23:03;;;;;;;21.38;14.32;;;17.40;99.90;;;;;;5057024;28;20033;-71
2022/07/31 05:25:28;;;;;;;22.20;15.13;;;17.50;99.90;;;;;;5054650;28;20047;-71
2022/07/31 05:27:54;;;;;;;18.85;13.57;;;17.50;99.90;;;;;;5056987;28;20124;-71
2022/07/31 05:30:19;;;;;;;21.85;14.55;;;17.50;99.90;;;;;;5057622;28;20037;-71
2022/07/31 05:32:45;;;;;;;22.10;14.40;;;17.60;99.90;;;;;;5060349;28;20032;-70
2022/07/31 05:35:11;;;;;;;25.30;14.57;;;17.50;99.90;;;;;;5055680;28;20094;-71
2022/07/31 05:37:38;;;;;;;22.75;14.30;;;17.50;99.90;;;;;;5057168;28;20040;-71
2022/07/31 05:40:04;;;;;;;24.13;14.80;;;17.70;99.90;;;;;;5056219;28;20049;-71
2022/07/31 05:42:30;;;;;;;23.67;13.82;;;17.70;99.90;;;;;;5059736;28;20394;-71
2022/07/31 05:44:56;;;;;;;21.10;15.10;;;17.70;99.90;;;;;;5054480;28;20037;-71
2022/07/31 05:47:21;;;;;;;23.45;15.07;;;17.70;99.90;;;;;;5056895;28;20101;-71
2022/07/31 05:49:47;;;;;;;20.13;14.80;;;17.80;99.90;;;;;;5054962;28;20048;-70
2022/07/31 05:52:15;;;;;;;22.77;14.45;;;17.80;99.90;;;;;;5057272;28;20052;-70
2022/07/31 05:54:41;;;;;;;22.00;14.68;;;17.80;99.90;;;;;;5060927;28;20032;-71
2022/07/31 05:57:07;;;;;;;24.58;15.75;;;17.90;99.90;;;;;;5061355;28;20094;-71
2022/07/31 05:59:34;;;;;;;22.00;14.93;;;17.90;99.90;;;;;;5059303;28;20616;-70
2022/07/31 06:01:59;;;;;;;19.05;14.60;;;18.00;99.90;;;;;;5054443;28;20070;-70
2022/07/31 06:04:25;;;;;;;23.33;15.35;;;18.00;99.90;;;;;;5051895;28;20484;-70
2022/07/31 06:06:51;;;;;;;24.02;15.57;;;18.00;99.90;;;;;;5057982;28;20049;-70
2022/07/31 06:09:16;;;;;;;33.35;15.23;;;18.10;99.90;;;;;;5056105;28;20047;-70
2022/07/31 06:11:42;;;;;;;23.05;14.50;;;18.10;99.90;;;;;;5059349;28;20131;-70
2022/07/31 06:14:08;;;;;;;23.02;14.88;;;18.10;99.90;;;;;;5054202;28;20043;-70
2022/07/31 06:16:34;;;;;;;21.13;14.60;;;18.20;99.90;;;;;;5060276;28;20177;-70
2022/07/31 06:18:59;;;;;;;19.48;15.13;;;18.20;99.90;;;;;;5062645;28;20040;-70
2022/07/31 06:21:25;;;;;;;19.13;14.10;;;18.20;99.90;;;;;;5053960;28;20701;-70
2022/07/31 06:23:50;;;;;;;20.17;14.38;;;18.30;99.90;;;;;;5056137;28;20165;-70
2022/07/31 06:26:16;;;;;;;20.92;14.68;;;18.40;99.90;;;;;;5057505;28;20456;-70
2022/07/31 06:28:41;;;;;;;26.38;14.35;;;18.40;99.90;;;;;;5056776;28;20049;-70
2022/07/31 06:31:07;;;;;;;21.05;14.43;;;18.40;99.90;;;;;;5074583;28;20040;-70
2022/07/31 06:33:32;;;;;;;20.27;14.27;;;18.50;99.90;;;;;;5055709;28;20033;-70
2022/07/31 06:35:58;;;;;;;18.50;14.63;;;18.60;99.90;;;;;;5064381;28;20128;-70
2022/07/31 06:38:23;;;;;;;18.58;13.70;;;18.70;99.90;;;;;;5067889;28;20514;-70
2022/07/31 06:40:50;;;;;;;22.42;13.88;;;18.90;99.90;;;;;;5068685;28;20047;-70
2022/07/31 06:43:16;;;;;;;19.67;13.52;;;18.90;99.90;;;;;;5070652;28;20082;-70
2022/07/31 06:45:42;;;;;;;21.83;14.90;;;19.00;99.90;;;;;;5075105;28;20423;-70
2022/07/31 06:48:12;;;;;;;26.25;15.50;;;19.10;99.90;;;;;;5069608;28;20045;-69
2022/07/31 06:50:38;;;;;;;20.85;14.90;;;19.10;99.90;;;;;;5068275;28;20050;-70
2022/07/31 06:53:03;;;;;;;20.48;14.00;;;19.20;99.90;;;;;;5069598;28;20044;-69
2022/07/31 06:55:29;;;;;;;24.50;15.45;;;19.20;99.90;;;;;;5069466;28;20051;-69
2022/07/31 06:57:54;;;;;;;20.02;14.10;;;19.30;99.90;;;;;;5059954;28;20545;-69
2022/07/31 07:00:20;;;;;;;23.50;14.73;;;19.20;99.90;;;;;;5057837;28;20036;-70
2022/07/31 07:02:46;;;;;;;22.17;15.55;;;19.30;99.90;;;;;;5061545;28;20086;-69
2022/07/31 07:05:11;;;;;;;22.90;15.55;;;19.30;99.90;;;;;;5055905;28;20036;-70
2022/07/31 07:07:37;;;;;;;24.80;15.35;;;19.30;99.90;;;;;;5057911;28;20048;-69
2022/07/31 07:10:04;;;;;;;23.52;15.93;;;19.40;99.90;;;;;;5069230;28;20045;-70
2022/07/31 07:12:30;;;;;;;27.13;16.42;;;19.40;99.90;;;;;;5055705;28;20140;-69
2022/07/31 07:14:56;;;;;;;25.23;15.52;;;19.40;99.90;;;;;;5047446;28;20582;-69
2022/07/31 07:17:22;;;;;;;23.60;15.20;;;19.50;99.90;;;;;;5058768;28;20032;-70
2022/07/31 07:19:48;;;;;;;26.58;15.55;;;19.60;99.90;;;;;;5061619;28;20486;-69
2022/07/31 07:22:13;;;;;;;28.17;16.75;;;19.60;99.90;;;;;;5053706;28;20083;-69
2022/07/31 07:24:39;;;;;;;82.90;17.75;;;19.70;99.90;;;;;;5057023;28;20272;-69
2022/07/31 07:27:05;;;;;;;31.58;17.25;;;19.70;99.90;;;;;;5055638;28;20041;-70
2022/07/31 07:29:30;;;;;;;23.50;16.17;;;19.80;99.90;;;;;;5059068;28;20044;-69
2022/07/31 07:31:56;;;;;;;26.08;16.85;;;19.90;99.90;;;;;;5057493;28;20183;-69
2022/07/31 07:34:22;;;;;;;28.02;16.95;;;19.80;99.90;;;;;;5045137;28;20459;-69
2022/07/31 07:36:47;;;;;;;25.52;16.10;;;19.90;99.90;;;;;;5059205;28;20048;-69
2022/07/31 07:39:13;;;;;;;29.60;17.05;;;20.00;99.90;;;;;;5060454;28;20044;-69
2022/07/31 07:41:40;;;;;;;28.20;17.38;;;20.00;99.90;;;;;;5056092;28;20420;-69
2022/07/31 07:44:06;;;;;;;26.70;16.55;;;20.00;99.90;;;;;;5057257;28;20564;-69
2022/07/31 07:46:31;;;;;;;22.92;17.08;;;20.10;99.90;;;;;;5053768;28;20040;-69
2022/07/31 07:48:58;;;;;;;26.90;16.65;;;20.10;99.90;;;;;;5058827;28;20047;-68
2022/07/31 07:51:24;;;;;;;22.38;16.02;;;20.10;99.90;;;;;;5062567;28;20117;-68
2022/07/31 07:53:50;;;;;;;29.00;16.35;;;20.00;99.90;;;;;;5057434;28;20434;-68
2022/07/31 07:56:16;;;;;;;27.20;15.23;;;20.00;99.90;;;;;;5056866;28;20036;-71
2022/07/31 07:58:41;;;;;;;24.92;15.23;;;20.00;99.90;;;;;;5056095;28;20032;-69
2022/07/31 08:01:07;;;;;;;22.73;15.70;;;20.00;99.90;;;;;;5056864;28;20041;-69
2022/07/31 08:03:33;;;;;;;22.27;15.05;;;20.20;99.90;;;;;;5056823;28;20051;-71
2022/07/31 08:05:58;;;;;;;24.70;15.15;;;20.20;99.90;;;;;;5055710;28;20032;-70
2022/07/31 08:08:24;;;;;;;22.98;14.90;;;20.30;99.90;;;;;;5059899;28;20775;-72
2022/07/31 08:10:49;;;;;;;20.17;13.48;;;20.40;99.90;;;;;;5063438;28;20033;-74
2022/07/31 08:13:15;;;;;;;24.00;13.88;;;20.40;99.90;;;;;;5035372;28;20032;-68
2022/07/31 08:15:41;;;;;;;23.30;13.10;;;20.50;99.90;;;;;;5057231;28;20044;-71
2022/07/31 08:18:06;;;;;;;24.25;12.70;;;20.60;99.90;;;;;;5058915;28;20132;-72
2022/07/31 08:20:32;;;;;;;21.08;12.70;;;20.50;99.90;;;;;;5064054;28;20028;-72
2022/07/31 08:22:57;;;;;;;20.67;13.18;;;20.50;99.90;;;;;;5059283;28;20224;-71
2022/07/31 08:25:23;;;;;;;22.05;13.27;;;20.50;99.90;;;;;;5067212;28;20056;-69
2022/07/31 08:27:49;;;;;;;21.88;13.38;;;20.40;99.90;;;;;;5067733;28;20453;-73
2022/07/31 08:30:15;;;;;;;19.35;13.30;;;20.30;99.90;;;;;;5067847;28;20039;-70
2022/07/31 08:32:40;;;;;;;23.20;13.23;;;20.20;99.90;;;;;;5061340;28;20418;-71
2022/07/31 08:35:07;;;;;;;19.98;13.30;;;20.20;99.90;;;;;;5072492;28;20048;-72
2022/07/31 08:37:32;;;;;;;23.23;13.55;;;20.10;99.90;;;;;;5070248;28;20449;-70
2022/07/31 08:39:58;;;;;;;18.83;13.70;;;20.10;99.90;;;;;;5070841;28;20033;-70
2022/07/31 08:42:24;;;;;;;23.63;14.18;;;20.00;99.90;;;;;;5072212;28;20086;-72
2022/07/31 08:44:50;;;;;;;23.77;15.57;;;19.90;99.90;;;;;;5071624;28;20040;-70
2022/07/31 08:47:16;;;;;;;26.85;16.00;;;19.80;99.90;;;;;;5071019;28;20502;-71
2022/07/31 08:49:47;;;;;;;29.88;16.73;;;19.80;99.90;;;;;;5055952;28;20071;-73
2022/07/31 08:52:24;;;;;;;28.35;17.13;;;19.80;99.90;;;;;;5054014;28;20507;-72
2022/07/31 08:54:52;;;;;;;33.80;18.08;;;19.80;99.90;;;;;;5061466;28;20090;-70
2022/07/31 08:57:18;;;;;;;31.95;17.92;;;19.70;99.90;;;;;;5070869;28;20048;-71
2022/07/31 08:59:44;;;;;;;30.90;18.40;;;19.70;99.90;;;;;;5069914;28;20392;-70
2022/07/31 09:02:10;;;;;;;32.38;18.88;;;19.70;99.90;;;;;;5070234;28;20055;-69
2022/07/31 09:04:36;;;;;;;31.02;18.45;;;19.50;99.90;;;;;;5051612;28;20191;-69
2022/07/31 09:07:02;;;;;;;25.90;17.40;;;19.60;99.90;;;;;;5058565;28;20140;-70
2022/07/31 09:09:28;;;;;;;31.80;19.15;;;19.60;99.90;;;;;;5060340;28;20047;-69
2022/07/31 09:11:55;;;;;;;34.47;19.80;;;19.50;99.90;;;;;;5071423;28;20032;-70
2022/07/31 09:14:34;;;;;;;30.95;18.92;;;19.60;99.90;;;;;;5076009;28;20387;-70
2022/07/31 09:17:03;;;;;;;30.58;18.33;;;19.60;99.90;;;;;;5069836;28;20048;-71
2022/07/31 09:19:36;;;;;;;31.33;19.33;;;19.50;99.90;;;;;;5061717;28;20041;-70
2022/07/31 09:22:01;;;;;;;32.47;18.65;;;19.50;99.90;;;;;;5054892;28;20132;-70
2022/07/31 09:24:30;;;;;;;33.45;20.23;;;19.60;99.90;;;;;;5061823;28;20120;-69
2022/07/31 09:27:26;;;;;;;36.42;21.00;;;19.40;99.90;;;;;;5070427;28;20082;-71
2022/07/31 09:29:56;;;;;;;38.97;22.52;;;19.30;99.90;;;;;;5068296;28;20147;-69
2022/07/31 09:32:22;;;;;;;39.50;22.77;;;19.50;99.90;;;;;;5052543;28;20450;-68
2022/07/31 09:34:48;;;;;;;38.45;21.75;;;19.40;99.90;;;;;;5060982;28;20048;-68
2022/07/31 09:37:14;;;;;;;42.60;23.50;;;19.40;99.90;;;;;;5062568;28;20029;-68
2022/07/31 09:39:41;;;;;;;44.20;23.55;;;19.30;99.90;;;;;;5063336;28;20033;-69
2022/07/31 09:42:07;;;;;;;34.63;20.83;;;19.50;99.90;;;;;;5064186;28;20044;-69
2022/07/31 09:44:41;;;;;;;41.17;22.40;;;19.40;99.90;;;;;;5067769;28;20307;-69
2022/07/31 09:47:17;;;;;;;40.83;23.33;;;19.50;99.90;;;;;;5061312;28;20123;-70
2022/07/31 09:49:43;;;;;;;41.97;23.70;;;19.50;99.90;;;;;;5074909;28;20102;-69
2022/07/31 09:52:18;;;;;;;40.35;22.45;;;19.60;99.90;;;;;;5057349;28;20045;-69
2022/07/31 09:54:43;;;;;;;47.50;23.42;;;19.70;99.90;;;;;;5053970;28;20044;-71
2022/07/31 09:57:13;;;;;;;39.58;22.50;;;19.80;99.90;;;;;;5069734;28;20041;-72
2022/07/31 09:59:39;;;;;;;37.00;21.13;;;19.60;99.90;;;;;;5067035;28;20060;-73
2022/07/31 10:02:07;;;;;;;38.25;23.13;;;19.70;99.90;;;;;;5063989;28;20040;-73
2022/07/31 10:04:35;;;;;;;35.78;21.23;;;19.80;99.90;;;;;;5050843;28;20058;-78
2022/07/31 10:07:01;;;;;;;38.47;22.35;;;19.70;99.90;;;;;;5075943;28;20045;-73
2022/07/31 10:09:29;;;;;;;36.63;22.40;;;19.90;99.90;;;;;;5057253;28;20047;-76
2022/07/31 10:11:57;;;;;;;37.65;21.35;;;19.80;99.90;;;;;;5072639;28;20491;-77
2022/07/31 10:14:31;;;;;;;41.80;22.00;;;19.80;99.90;;;;;;5065685;28;20040;-78
2022/07/31 10:16:59;;;;;;;40.72;21.60;;;19.80;99.90;;;;;;5071778;28;20040;-76
2022/07/31 10:19:30;;;;;;;38.58;21.80;;;19.80;99.90;;;;;;5071180;28;20094;-77
2022/07/31 10:22:00;;;;;;;35.95;20.60;;;19.80;99.90;;;;;;5078776;28;20033;-76
2022/07/31 10:24:30;;;;;;;35.85;21.83;;;19.90;99.90;;;;;;5070934;28;20102;-76
2022/07/31 10:26:57;;;;;;;43.10;23.85;;;20.00;99.90;;;;;;5053961;28;20375;-77
2022/07/31 10:29:24;;;;;;;34.20;21.38;;;20.00;99.90;;;;;;5067644;28;20437;-75
2022/07/31 10:31:50;;;;;;;36.58;21.63;;;20.00;99.90;;;;;;5061786;28;20096;-74
2022/07/31 10:34:16;;;;;;;42.45;22.17;;;20.00;99.90;;;;;;5062660;28;20067;-71
2022/07/31 10:36:45;;;;;;;38.80;22.25;;;19.90;99.90;;;;;;5068326;28;20075;-71
2022/07/31 10:39:30;;;;;;;39.03;23.00;;;20.00;99.90;;;;;;5061488;28;20115;-72
2022/07/31 10:42:18;;;;;;;36.53;22.45;;;20.10;99.90;;;;;;5072270;28;20071;-72
2022/07/31 10:44:49;;;;;;;32.78;19.13;;;20.00;99.90;;;;;;5062021;28;20062;-76
2022/07/31 10:47:16;;;;;;;31.00;17.52;;;19.90;99.90;;;;;;5064636;28;20041;-77
2022/07/31 10:49:47;;;;;;;27.35;17.35;;;19.90;99.90;;;;;;5074230;28;20044;-78
2022/07/31 10:52:14;;;;;;;30.47;17.10;;;19.80;99.90;;;;;;5068163;28;20610;-78
2022/07/31 10:54:45;;;;;;;33.70;19.30;;;19.80;99.90;;;;;;5053678;28;20271;-79
2022/07/31 10:57:21;;;;;;;27.70;17.33;;;19.70;99.90;;;;;;5066350;28;20040;-76
2022/07/31 10:59:47;;;;;;;34.65;19.15;;;19.70;99.90;;;;;;5070008;28;20543;-77
2022/07/31 11:02:13;;;;;;;36.50;19.92;;;19.60;99.90;;;;;;5069315;28;20186;-70
2022/07/31 11:04:39;;;;;;;35.55;19.80;;;19.50;99.90;;;;;;5069517;28;20036;-70
2022/07/31 11:07:18;;;;;;;46.83;22.38;;;19.60;99.90;;;;;;5068033;28;20036;-69
2022/07/31 11:09:44;;;;;;;38.55;21.65;;;19.50;99.90;;;;;;5069278;28;20510;-71
2022/07/31 11:12:19;;;;;;;43.83;23.98;;;19.40;99.90;;;;;;5067068;28;20134;-71
2022/07/31 11:14:47;;;;;;;41.35;24.15;;;19.30;99.90;;;;;;5049098;28;20048;-73
2022/07/31 11:17:13;;;;;;;50.72;25.05;;;19.30;99.90;;;;;;5067715;28;20038;-75
2022/07/31 11:19:40;;;;;;;52.15;26.45;;;19.30;99.90;;;;;;5071852;28;20041;-77
2022/07/31 11:22:14;;;;;;;53.65;27.38;;;19.40;99.90;;;;;;5052336;28;20037;-70
2022/07/31 11:24:39;;;;;;;61.15;28.08;;;19.20;99.90;;;;;;5065490;28;20541;-70
2022/07/31 11:27:05;;;;;;;58.70;28.75;;;19.20;99.90;;;;;;5057587;28;20055;-69
2022/07/31 11:29:33;;;;;;;74.75;32.17;;;19.20;99.90;;;;;;5066551;28;20080;-70
2022/07/31 11:32:04;;;;;;;63.25;29.55;;;19.20;99.90;;;;;;5070062;28;20136;-77
2022/07/31 11:34:42;;;;;;;60.80;30.55;;;19.40;99.90;;;;;;5069343;28;20049;-75
2022/07/31 11:37:07;;;;;;;65.82;31.33;;;19.30;99.90;;;;;;5069065;28;20556;-75
2022/07/31 11:39:33;;;;;;;72.57;31.60;;;19.40;99.90;;;;;;5069208;28;20124;-75
2022/07/31 11:42:02;;;;;;;74.57;33.80;;;19.30;99.90;;;;;;5068559;28;20119;-70
2022/07/31 11:44:28;;;;;;;99.90;37.08;;;19.40;99.90;;;;;;5066950;28;20051;-70
2022/07/31 11:46:53;;;;;;;73.22;34.60;;;19.50;99.90;;;;;;5055000;28;20175;-73
2022/07/31 11:49:22;;;;;;;102.47;37.40;;;19.50;99.90;;;;;;5068585;28;20040;-71
2022/07/31 11:51:48;;;;;;;116.15;38.90;;;19.40;99.90;;;;;;5058458;28;20052;-72
2022/07/31 11:54:24;;;;;;;107.63;38.28;;;19.50;99.90;;;;;;5063443;28;20036;-72
2022/07/31 11:56:56;;;;;;;119.05;40.30;;;19.60;99.90;;;;;;5064542;28;20083;-74
2022/07/31 11:59:32;;;;;;;;;;;19.50;99.90;;;;;;5074407;28;20040;-71
2022/07/31 12:02:05;;;;;;;126.13;42.08;;;19.70;99.90;;;;;;5055147;28;20314;-71
2022/07/31 12:04:35;;;;;;;105.85;43.80;;;19.50;99.90;;;;;;5068327;28;20052;-69
2022/07/31 12:07:00;;;;;;;111.15;44.17;;;19.60;99.90;;;;;;5069806;28;20047;-70
2022/07/31 12:09:27;;;;;;;120.18;48.20;;;19.70;99.90;;;;;;5070099;28;20557;-72
2022/07/31 12:11:53;;;;;;;133.18;50.50;;;19.80;99.90;;;;;;5069718;28;20070;-69
2022/07/31 12:14:29;;;;;;;111.93;48.70;;;19.70;99.90;;;;;;5070067;28;20443;-70
2022/07/31 12:16:55;;;;;;;113.78;47.25;;;19.90;99.90;;;;;;5063288;28;20043;-70
2022/07/31 12:19:27;;;;;;;105.15;47.00;;;19.80;99.90;;;;;;5067131;28;20391;-71
2022/07/31 12:21:53;;;;;;;103.35;44.67;;;20.00;99.90;;;;;;5070171;28;20037;-76
2022/07/31 12:24:19;;;;;;;117.75;46.97;;;19.90;99.90;;;;;;5069304;28;20040;-74
2022/07/31 12:26:50;;;;;;;111.75;46.70;;;19.80;99.90;;;;;;5059590;28;20396;-74
2022/07/31 12:29:16;;;;;;;110.30;45.38;;;19.60;99.90;;;;;;5056199;28;20037;-73
2022/07/31 12:31:48;;;;;;;111.05;46.33;;;19.60;99.90;;;;;;5066260;28;20124;-74